Time;durP1;ratioP1;P1;durP2;ratioP2;P2;SDS_P1;SDS_P2;PMS_P1;PMS_P2;Temp;Humidity;BMP_temperature;BMP_pressure;BME280_temperature;BME280_humidity;BME280_pressure;Samples;Min_cycle;Max_cycle;Signal;HPM_P1;HPM_P2
2022/03/05 00:02:15;;;;;;;30.77;17.70;;;3.60;97.40;;;;;;5096771;28;20395;-91
2022/03/05 00:04:41;;;;;;;32.40;19.40;;;3.60;97.50;;;;;;5097185;28;20702;-94
2022/03/05 00:07:07;;;;;;;38.00;21.08;;;3.60;97.60;;;;;;5107076;28;20181;-92
2022/03/05 00:09:34;;;;;;;31.53;18.33;;;3.60;97.90;;;;;;5097538;28;20232;-94
2022/03/05 00:12:00;;;;;;;33.15;18.60;;;3.60;97.70;;;;;;5099374;28;20449;-92
2022/03/05 00:14:26;;;;;;;33.77;18.33;;;3.50;97.50;;;;;;5100559;28;20204;-94
2022/03/05 00:16:53;;;;;;;31.03;19.20;;;3.50;97.30;;;;;;5096146;28;20468;-94
2022/03/05 00:19:19;;;;;;;30.55;18.33;;;3.50;97.20;;;;;;5079659;28;20177;-93
2022/03/05 00:21:46;;;;;;;30.38;18.38;;;3.50;97.30;;;;;;5104255;28;20275;-94
2022/03/05 00:24:13;;;;;;;33.13;18.90;;;3.50;97.70;;;;;;5100630;28;20184;-94
2022/03/05 00:26:42;;;;;;;34.72;19.85;;;3.50;98.10;;;;;;5096328;28;20279;-94
2022/03/05 00:29:09;;;;;;;34.78;20.75;;;3.40;97.70;;;;;;5098599;28;20275;-94
2022/03/05 00:31:35;;;;;;;37.95;20.20;;;3.40;97.80;;;;;;5101816;28;20271;-92
2022/03/05 00:34:01;;;;;;;39.40;21.52;;;3.40;97.60;;;;;;5105151;28;20181;-94
2022/03/05 00:36:28;;;;;;;39.17;21.13;;;3.30;97.70;;;;;;5096339;28;20245;-93
2022/03/05 00:38:55;;;;;;;34.78;20.83;;;3.30;97.60;;;;;;5105497;28;20190;-94
2022/03/05 00:41:22;;;;;;;38.65;22.08;;;3.20;97.70;;;;;;5118042;28;20188;-93
2022/03/05 00:43:48;;;;;;;41.20;22.83;;;3.20;97.60;;;;;;5121015;28;20172;-92
2022/03/05 00:46:15;;;;;;;35.15;20.15;;;3.20;98.00;;;;;;5117930;28;20242;-94
2022/03/05 00:48:41;;;;;;;37.60;20.88;;;3.10;98.20;;;;;;5103423;28;20180;-93
2022/03/05 00:51:07;;;;;;;36.53;21.65;;;3.10;97.90;;;;;;5095884;28;20202;-93
2022/03/05 00:53:37;;;;;;;39.40;19.63;;;3.10;97.60;;;;;;5095651;28;20562;-94
2022/03/05 00:56:03;;;;;;;36.30;19.83;;;3.10;97.80;;;;;;5096041;28;20193;-92
2022/03/05 00:58:30;;;;;;;30.48;18.75;;;3.00;97.70;;;;;;5095435;28;20181;-91
2022/03/05 01:00:56;;;;;;;36.20;17.98;;;3.00;98.10;;;;;;5102037;28;20235;-91
2022/03/05 01:03:22;;;;;;;32.47;18.90;;;3.00;98.60;;;;;;5099762;28;20184;-91
2022/03/05 01:05:49;;;;;;;32.83;18.63;;;2.90;98.10;;;;;;5098726;28;20211;-92
2022/03/05 01:08:15;;;;;;;32.05;18.50;;;2.90;98.30;;;;;;5095617;28;20412;-91
2022/03/05 01:10:41;;;;;;;30.67;16.77;;;2.90;98.20;;;;;;5095933;28;20212;-91
2022/03/05 01:13:08;;;;;;;32.38;17.77;;;2.80;98.10;;;;;;5099980;28;20184;-92
2022/03/05 01:15:34;;;;;;;29.25;17.60;;;2.80;98.10;;;;;;5107609;28;20215;-90
2022/03/05 01:17:59;;;;;;;29.08;16.70;;;2.80;98.20;;;;;;5104338;28;20207;-90
2022/03/05 01:20:25;;;;;;;25.03;15.70;;;2.80;98.00;;;;;;5101700;28;20199;-91
2022/03/05 01:22:51;;;;;;;31.87;15.67;;;2.80;97.80;;;;;;5100540;28;20484;-91
2022/03/05 01:25:18;;;;;;;28.20;17.27;;;2.70;97.90;;;;;;5102593;28;20234;-92
2022/03/05 01:27:45;;;;;;;28.20;16.60;;;2.70;97.90;;;;;;5096608;28;20263;-92
2022/03/05 01:30:11;;;;;;;30.08;17.02;;;2.70;98.20;;;;;;5095467;28;20235;-91
2022/03/05 01:32:38;;;;;;;29.98;16.58;;;2.60;98.30;;;;;;5095207;28;20181;-91
2022/03/05 01:35:04;;;;;;;26.83;15.50;;;2.60;98.30;;;;;;5097224;28;20657;-92
2022/03/05 01:37:31;;;;;;;30.35;16.77;;;2.50;98.30;;;;;;5117755;28;20583;-92
2022/03/05 01:39:57;;;;;;;30.13;18.42;;;2.50;98.30;;;;;;5099307;28;20208;-92
2022/03/05 01:42:24;;;;;;;28.00;15.90;;;2.40;98.40;;;;;;5096058;28;20177;-92
2022/03/05 01:44:50;;;;;;;28.30;15.63;;;2.40;98.50;;;;;;5083887;28;20224;-92
2022/03/05 01:47:16;;;;;;;27.30;16.65;;;2.30;98.60;;;;;;5012312;28;20648;-92
2022/03/05 01:49:45;;;;;;;29.17;16.85;;;2.30;98.50;;;;;;5011787;28;20330;-92
2022/03/05 01:52:14;;;;;;;27.05;16.80;;;2.20;98.90;;;;;;5094056;28;20195;-91
2022/03/05 01:54:41;;;;;;;26.95;16.63;;;2.20;98.80;;;;;;5019703;28;20217;-91
2022/03/05 01:57:09;;;;;;;29.35;16.73;;;2.10;99.00;;;;;;5012356;28;20183;-92
2022/03/05 01:59:35;;;;;;;29.38;16.15;;;2.10;99.20;;;;;;5012111;28;20207;-92
2022/03/05 02:02:04;;;;;;;28.90;15.02;;;2.10;99.30;;;;;;5011414;28;20262;-92
2022/03/05 02:04:31;;;;;;;29.08;16.40;;;2.10;99.50;;;;;;5013021;28;20252;-92
2022/03/05 02:06:57;;;;;;;29.98;17.40;;;2.00;99.40;;;;;;5023667;28;20206;-92
2022/03/05 02:09:24;;;;;;;26.85;16.88;;;2.00;99.70;;;;;;5011761;28;20226;-91
2022/03/05 02:11:51;;;;;;;28.88;16.92;;;1.90;99.50;;;;;;5011660;28;20761;-92
2022/03/05 02:14:18;;;;;;;30.15;17.80;;;1.90;99.90;;;;;;5011429;28;20187;-92
2022/03/05 02:16:46;;;;;;;28.15;16.27;;;1.80;99.70;;;;;;5013921;28;20251;-93
2022/03/05 02:19:12;;;;;;;29.98;15.55;;;1.80;99.80;;;;;;5020312;28;20190;-92
2022/03/05 02:21:38;;;;;;;34.03;16.38;;;1.80;99.90;;;;;;5012267;28;20628;-92
2022/03/05 02:24:05;;;;;;;31.35;15.93;;;1.70;99.90;;;;;;5011551;28;20183;-92
2022/03/05 02:26:33;;;;;;;29.13;16.50;;;1.70;99.90;;;;;;5082019;28;20191;-92
2022/03/05 02:28:59;;;;;;;29.75;17.05;;;1.70;99.90;;;;;;5016687;28;20202;-92
2022/03/05 02:31:25;;;;;;;27.23;15.43;;;1.60;99.90;;;;;;5011089;28;20317;-91
2022/03/05 02:33:55;;;;;;;31.20;16.20;;;1.60;99.90;;;;;;5015283;28;20543;-92
2022/03/05 02:36:25;;;;;;;27.00;16.23;;;1.60;99.90;;;;;;5080403;28;20419;-92
2022/03/05 02:38:52;;;;;;;30.15;16.13;;;1.60;99.90;;;;;;5011515;28;20364;-92
2022/03/05 02:41:19;;;;;;;30.98;17.70;;;1.50;99.90;;;;;;5018357;28;20207;-93
2022/03/05 02:43:46;;;;;;;33.50;16.42;;;1.50;99.90;;;;;;5081822;28;20235;-92
2022/03/05 02:46:12;;;;;;;28.98;15.88;;;1.50;99.90;;;;;;5011031;28;20231;-92
2022/03/05 02:48:39;;;;;;;29.73;16.15;;;1.50;99.90;;;;;;5079870;28;20635;-92
2022/03/05 02:51:05;;;;;;;29.38;16.00;;;1.40;99.90;;;;;;5010983;28;20279;-92
2022/03/05 02:53:32;;;;;;;29.73;17.02;;;1.40;99.90;;;;;;5022490;28;20632;-92
2022/03/05 02:55:59;;;;;;;29.92;16.05;;;1.40;99.90;;;;;;5063441;28;20279;-92
2022/03/05 02:58:26;;;;;;;26.83;16.75;;;1.40;99.90;;;;;;5079658;28;20183;-92
2022/03/05 03:00:53;;;;;;;30.73;17.05;;;1.40;99.90;;;;;;5010353;28;20581;-92
2022/03/05 03:03:19;;;;;;;31.52;17.40;;;1.40;99.90;;;;;;5010911;28;20210;-92
2022/03/05 03:05:45;;;;;;;28.88;17.88;;;1.40;99.90;;;;;;5070157;28;20546;-92
2022/03/05 03:08:12;;;;;;;35.90;17.92;;;1.40;99.90;;;;;;5012149;28;20179;-92
2022/03/05 03:10:38;;;;;;;32.22;17.23;;;1.40;99.90;;;;;;5062328;28;20223;-92
2022/03/05 03:13:05;;;;;;;29.95;17.15;;;1.30;99.90;;;;;;5079586;28;20175;-92
2022/03/05 03:15:31;;;;;;;30.00;16.60;;;1.30;99.90;;;;;;5010524;28;20207;-92
2022/03/05 03:17:57;;;;;;;31.83;17.52;;;1.30;99.90;;;;;;5019989;28;20190;-92
2022/03/05 03:20:25;;;;;;;28.48;17.23;;;1.30;99.90;;;;;;5013219;28;20211;-92
2022/03/05 03:22:52;;;;;;;32.92;17.50;;;1.30;99.90;;;;;;5011103;28;20291;-92
2022/03/05 03:25:19;;;;;;;35.78;18.40;;;1.30;99.90;;;;;;5082049;28;20299;-93
2022/03/05 03:27:48;;;;;;;30.20;17.27;;;1.30;99.90;;;;;;5011421;28;20186;-91
2022/03/05 03:30:15;;;;;;;31.08;18.95;;;1.20;99.90;;;;;;5087084;28;20199;-92
2022/03/05 03:32:42;;;;;;;31.88;18.60;;;1.20;99.90;;;;;;5011605;28;20218;-92
2022/03/05 03:35:09;;;;;;;32.75;18.15;;;1.20;99.90;;;;;;5012481;28;20617;-92
2022/03/05 03:37:36;;;;;;;30.77;17.17;;;1.10;99.90;;;;;;5079185;28;20265;-92
2022/03/05 03:40:05;;;;;;;29.20;16.70;;;1.10;99.90;;;;;;5009830;28;20253;-91
2022/03/05 03:42:32;;;;;;;31.70;18.45;;;1.10;99.90;;;;;;5018506;28;20175;-91
2022/03/05 03:44:57;;;;;;;32.22;16.92;;;1.10;99.90;;;;;;5015377;28;20254;-91
2022/03/05 03:47:24;;;;;;;34.10;18.53;;;1.20;99.90;;;;;;5011296;28;20244;-92
2022/03/05 03:49:50;;;;;;;31.05;17.73;;;1.20;99.90;;;;;;5078990;28;20223;-92
2022/03/05 03:52:17;;;;;;;34.60;18.30;;;1.20;99.90;;;;;;5010544;28;20187;-93
2022/03/05 03:54:45;;;;;;;30.88;17.30;;;1.20;99.90;;;;;;5021395;28;20209;-94
2022/03/05 03:57:12;;;;;;;32.58;18.60;;;1.10;99.90;;;;;;5010426;28;20191;-96
2022/03/05 03:59:38;;;;;;;34.90;17.83;;;1.10;99.90;;;;;;5086803;28;20298;-94
2022/03/05 04:02:05;;;;;;;34.60;18.27;;;1.10;99.90;;;;;;5010397;28;20259;-94
2022/03/05 04:04:31;;;;;;;29.13;18.38;;;1.00;99.90;;;;;;5009861;28;20256;-94
2022/03/05 04:09:42;;;;;;;32.83;17.85;;;1.00;99.90;;;;;;5010758;28;20279;-95
2022/03/05 04:12:08;;;;;;;32.17;17.73;;;0.90;99.90;;;;;;5080913;28;20175;-94
2022/03/05 04:14:35;;;;;;;28.25;15.95;;;0.90;99.90;;;;;;5009823;28;20203;-94
2022/03/05 04:17:01;;;;;;;27.92;16.27;;;1.00;99.90;;;;;;5087816;28;20216;-94
2022/03/05 04:19:27;;;;;;;37.83;18.83;;;0.90;99.90;;;;;;5017585;28;20211;-94
2022/03/05 04:21:54;;;;;;;27.60;17.55;;;0.90;99.90;;;;;;5010865;28;20172;-94
2022/03/05 04:24:20;;;;;;;30.83;18.33;;;0.90;99.90;;;;;;5013088;28;20236;-94
2022/03/05 04:26:47;;;;;;;32.10;17.27;;;0.90;99.90;;;;;;5015662;28;20251;-94
2022/03/05 04:29:13;;;;;;;35.60;18.85;;;0.80;99.90;;;;;;5088699;28;20267;-93
2022/03/05 04:31:40;;;;;;;32.00;18.60;;;0.80;99.90;;;;;;5083751;28;20194;-94
2022/03/05 04:34:10;;;;;;;36.08;16.90;;;0.70;99.90;;;;;;5015591;28;20247;-94
2022/03/05 04:36:36;;;;;;;31.83;16.90;;;0.70;99.90;;;;;;5085088;28;20203;-94
2022/03/05 04:39:02;;;;;;;29.98;17.08;;;0.60;99.90;;;;;;5014618;28;20183;-94
2022/03/05 04:41:31;;;;;;;36.88;17.58;;;0.60;99.90;;;;;;5088566;28;20260;-92
2022/03/05 04:43:58;;;;;;;36.30;18.05;;;0.50;99.90;;;;;;5020468;28;20245;-92
2022/03/05 04:46:24;;;;;;;30.55;16.42;;;0.40;99.90;;;;;;5012385;28;20263;-92
2022/03/05 04:48:50;;;;;;;31.00;17.53;;;0.40;99.90;;;;;;5082180;28;20187;-91
2022/03/05 04:51:16;;;;;;;30.48;17.38;;;0.40;99.90;;;;;;5013999;28;20252;-92
2022/03/05 04:53:42;;;;;;;35.00;18.25;;;0.40;99.90;;;;;;5025200;28;20184;-92
2022/03/05 04:56:08;;;;;;;31.63;18.50;;;0.40;99.90;;;;;;5016341;28;20199;-92
2022/03/05 04:58:34;;;;;;;34.75;17.15;;;0.40;99.90;;;;;;5014053;28;20419;-92
2022/03/05 05:01:01;;;;;;;35.67;19.13;;;0.30;99.90;;;;;;5013199;28;20199;-92
2022/03/05 05:03:27;;;;;;;36.17;19.55;;;0.30;99.90;;;;;;5012436;28;20328;-92
2022/03/05 05:05:54;;;;;;;52.13;30.52;;;0.30;99.90;;;;;;5013249;28;20196;-93
2022/03/05 05:08:21;;;;;;;36.13;22.60;;;0.30;99.90;;;;;;5021235;28;20275;-94
2022/03/05 05:10:47;;;;;;;35.28;20.20;;;0.30;99.90;;;;;;5084800;28;20226;-95
2022/03/05 05:13:13;;;;;;;37.50;19.67;;;0.30;99.90;;;;;;5015533;28;20184;-94
2022/03/05 05:15:39;;;;;;;38.97;22.50;;;0.20;99.90;;;;;;5082677;28;20195;-94
2022/03/05 05:18:05;;;;;;;42.95;22.40;;;0.20;99.90;;;;;;5014890;28;20407;-93
2022/03/05 05:20:31;;;;;;;44.77;25.13;;;0.20;99.90;;;;;;5019402;28;20277;-94
2022/03/05 05:22:58;;;;;;;52.28;25.80;;;0.20;99.90;;;;;;5012352;28;20451;-94
2022/03/05 05:25:24;;;;;;;39.80;23.75;;;0.20;99.90;;;;;;5014050;28;20290;-94
2022/03/05 05:27:50;;;;;;;45.17;23.20;;;0.10;99.90;;;;;;5018313;28;20222;-94
2022/03/05 05:30:18;;;;;;;48.15;25.58;;;0.10;99.90;;;;;;5017477;28;20318;-94
2022/03/05 05:32:44;;;;;;;42.42;24.98;;;0.10;99.90;;;;;;5020964;28;20266;-94
2022/03/05 05:35:11;;;;;;;49.28;26.52;;;0.10;99.90;;;;;;5081149;28;20203;-94
2022/03/05 05:37:37;;;;;;;49.38;27.92;;;0.10;99.90;;;;;;5011609;28;20579;-94
2022/03/05 05:40:04;;;;;;;50.03;25.85;;;0.10;99.90;;;;;;5083285;28;20203;-94
2022/03/05 05:42:30;;;;;;;46.30;25.80;;;0.10;99.90;;;;;;5012976;28;20187;-93
2022/03/05 05:44:57;;;;;;;86.53;40.38;;;0.10;99.90;;;;;;5021151;28;20303;-94
2022/03/05 05:47:23;;;;;;;92.47;50.65;;;0.10;99.90;;;;;;5013060;28;20210;-94
2022/03/05 05:49:49;;;;;;;77.93;45.75;;;0.20;99.90;;;;;;5081024;28;20227;-93
2022/03/05 05:52:15;;;;;;;53.03;33.77;;;0.20;99.90;;;;;;5011514;28;20270;-95
2022/03/05 05:54:41;;;;;;;57.13;31.95;;;0.30;99.90;;;;;;5018452;28;20452;-94
2022/03/05 05:57:08;;;;;;;46.50;27.27;;;0.30;99.90;;;;;;5016252;28;20191;-94
2022/03/05 05:59:34;;;;;;;41.97;26.02;;;0.40;99.90;;;;;;5012011;28;20207;-93
2022/03/05 06:02:00;;;;;;;42.13;23.70;;;0.40;99.90;;;;;;5080724;28;20324;-93
2022/03/05 06:04:27;;;;;;;57.60;31.15;;;0.50;99.90;;;;;;5013814;28;20230;-92
2022/03/05 06:06:53;;;;;;;59.03;33.45;;;0.60;99.90;;;;;;5097621;28;20195;-93
2022/03/05 06:09:19;;;;;;;45.28;28.73;;;0.60;99.90;;;;;;5014882;28;20317;-94
2022/03/05 06:11:46;;;;;;;41.92;24.63;;;0.70;99.90;;;;;;4995070;28;20179;-94
2022/03/05 06:14:13;;;;;;;49.83;27.83;;;0.70;99.90;;;;;;5010501;28;20630;-94
2022/03/05 06:16:39;;;;;;;63.67;37.05;;;0.80;99.90;;;;;;5011230;28;20183;-94
2022/03/05 06:19:08;;;;;;;79.47;43.65;;;0.90;99.90;;;;;;5017113;28;20167;-94
2022/03/05 06:21:34;;;;;;;64.18;33.55;;;0.90;99.90;;;;;;5085823;28;20555;-94
2022/03/05 06:24:00;;;;;;;42.75;24.80;;;1.00;99.90;;;;;;5018649;28;20316;-93
2022/03/05 06:26:28;;;;;;;41.92;24.33;;;1.10;99.90;;;;;;5011342;28;20195;-94
2022/03/05 06:28:54;;;;;;;35.83;21.60;;;1.20;99.90;;;;;;5079598;28;20175;-94
2022/03/05 06:31:20;;;;;;;38.90;22.15;;;1.40;99.90;;;;;;5011349;28;20203;-94
2022/03/05 06:33:47;;;;;;;39.95;21.75;;;1.50;99.90;;;;;;5019077;28;20181;-94
2022/03/05 06:36:13;;;;;;;37.60;22.70;;;1.60;99.90;;;;;;5079574;28;20571;-95
2022/03/05 06:38:39;;;;;;;45.05;23.23;;;1.80;99.90;;;;;;5019659;28;20198;-93
2022/03/05 06:41:05;;;;;;;46.78;23.58;;;1.90;99.90;;;;;;5011054;28;20716;-93
2022/03/05 06:43:31;;;;;;;41.63;23.20;;;2.00;99.90;;;;;;5011043;28;20179;-93
2022/03/05 06:45:57;;;;;;;37.25;21.73;;;2.10;99.90;;;;;;5013072;28;20484;-94
2022/03/05 06:48:23;;;;;;;36.60;20.83;;;2.20;99.90;;;;;;5084426;28;20189;-95
2022/03/05 06:50:49;;;;;;;41.33;21.98;;;2.40;99.90;;;;;;5010236;28;20227;-94
2022/03/05 06:53:17;;;;;;;39.67;21.40;;;2.50;99.90;;;;;;5016372;28;20182;-93
2022/03/05 06:55:43;;;;;;;37.55;21.10;;;2.70;99.90;;;;;;5080268;28;20439;-94
2022/03/05 06:58:14;;;;;;;33.90;19.05;;;2.90;99.90;;;;;;5017898;28;20190;-93
2022/03/05 07:00:40;;;;;;;31.33;19.20;;;3.00;99.90;;;;;;5012130;28;20203;-94
2022/03/05 07:03:07;;;;;;;29.85;18.67;;;3.20;99.90;;;;;;5011096;28;20176;-92
2022/03/05 07:05:34;;;;;;;31.55;18.08;;;3.30;99.90;;;;;;5080622;28;20207;-95
2022/03/05 07:08:01;;;;;;;35.33;18.42;;;3.50;99.90;;;;;;5084598;28;20179;-94
2022/03/05 07:10:27;;;;;;;33.65;19.70;;;3.60;99.90;;;;;;5022972;28;20231;-94
2022/03/05 07:12:53;;;;;;;34.03;18.42;;;3.70;99.90;;;;;;5010653;28;21163;-94
2022/03/05 07:15:19;;;;;;;25.87;17.73;;;3.80;99.90;;;;;;5010007;28;20210;-94
2022/03/05 07:17:51;;;;;;;32.90;18.98;;;4.00;99.90;;;;;;5010379;28;20387;-93
2022/03/05 07:20:18;;;;;;;34.85;19.98;;;4.10;99.90;;;;;;5087025;28;20210;-94
2022/03/05 07:22:44;;;;;;;30.50;18.58;;;4.20;99.90;;;;;;5019290;28;20182;-92
2022/03/05 07:25:14;;;;;;;34.63;19.63;;;4.30;99.90;;;;;;5010432;28;20207;-94
2022/03/05 07:27:40;;;;;;;25.42;16.35;;;4.40;99.90;;;;;;5009949;28;20183;-93
2022/03/05 07:30:08;;;;;;;29.77;17.38;;;4.50;99.90;;;;;;5010027;28;20225;-94
2022/03/05 07:32:34;;;;;;;29.50;17.17;;;4.60;99.90;;;;;;5015343;28;20183;-95
2022/03/05 07:35:00;;;;;;;31.73;17.70;;;4.80;99.90;;;;;;5022781;28;20200;-94
2022/03/05 07:37:26;;;;;;;28.70;18.20;;;4.90;99.90;;;;;;5010278;28;20443;-94
2022/03/05 07:39:54;;;;;;;34.20;19.15;;;5.00;99.90;;;;;;5007410;28;20940;-94
2022/03/05 07:42:21;;;;;;;31.55;19.05;;;5.10;99.90;;;;;;5080400;28;20187;-91
2022/03/05 07:44:47;;;;;;;29.63;18.88;;;5.10;99.90;;;;;;5009971;28;20199;-91
2022/03/05 07:47:13;;;;;;;31.90;17.90;;;5.20;99.90;;;;;;5028208;28;20234;-92
2022/03/05 07:49:39;;;;;;;28.67;17.77;;;5.30;99.90;;;;;;5017014;28;20263;-91
2022/03/05 07:52:05;;;;;;;34.70;21.43;;;5.40;99.90;;;;;;5010088;28;20453;-91
2022/03/05 07:54:31;;;;;;;35.28;19.92;;;5.50;99.90;;;;;;5009753;28;20477;-92
2022/03/05 07:56:57;;;;;;;28.58;17.42;;;5.60;99.90;;;;;;5095604;28;20184;-91
2022/03/05 07:59:23;;;;;;;33.80;19.90;;;5.70;99.90;;;;;;5100888;28;20189;-90
2022/03/05 08:01:50;;;;;;;32.23;19.63;;;5.80;99.90;;;;;;5112894;28;20399;-93
2022/03/05 08:04:18;;;;;;;29.52;18.48;;;5.80;99.90;;;;;;5102097;28;20401;-93
2022/03/05 08:06:45;;;;;;;29.35;18.55;;;5.90;99.90;;;;;;5099878;28;20179;-93
2022/03/05 08:09:11;;;;;;;31.10;17.77;;;6.00;99.90;;;;;;5098951;28;20210;-94
2022/03/05 08:11:37;;;;;;;32.10;19.90;;;6.00;99.90;;;;;;5100172;28;20531;-93
2022/03/05 08:14:03;;;;;;;28.77;18.15;;;6.10;99.90;;;;;;5104946;28;20176;-93
2022/03/05 08:16:31;;;;;;;33.60;19.70;;;6.10;99.90;;;;;;5100963;28;20187;-93
2022/03/05 08:18:59;;;;;;;30.35;17.70;;;6.20;99.90;;;;;;5101842;28;20180;-91
2022/03/05 08:21:28;;;;;;;35.80;19.90;;;6.30;99.90;;;;;;5098122;28;20268;-94
2022/03/05 08:23:55;;;;;;;36.95;20.65;;;6.40;99.70;;;;;;5097352;28;20608;-93
2022/03/05 08:26:21;;;;;;;37.40;22.20;;;6.50;99.80;;;;;;5106950;28;20196;-93
2022/03/05 08:28:47;;;;;;;36.30;21.58;;;6.50;99.70;;;;;;5100651;28;20680;-91
2022/03/05 08:31:13;;;;;;;31.30;19.93;;;6.60;99.70;;;;;;5104358;28;20211;-94
2022/03/05 08:33:39;;;;;;;31.70;21.13;;;6.70;99.20;;;;;;5101264;28;20385;-92
2022/03/05 08:36:07;;;;;;;30.55;19.55;;;6.80;99.40;;;;;;5099538;28;20207;-94
2022/03/05 08:38:34;;;;;;;30.23;18.95;;;7.00;99.20;;;;;;5107837;28;20225;-92
2022/03/05 08:41:04;;;;;;;28.60;19.30;;;7.20;98.70;;;;;;5102555;28;20199;-94
2022/03/05 08:43:30;;;;;;;29.50;18.08;;;7.40;98.40;;;;;;5100845;28;20175;-92
2022/03/05 08:46:01;;;;;;;32.47;19.40;;;7.50;98.10;;;;;;5097506;28;20242;-93
2022/03/05 08:48:28;;;;;;;27.35;18.70;;;7.60;98.10;;;;;;5095957;28;20402;-93
2022/03/05 08:50:54;;;;;;;30.38;18.88;;;7.80;98.20;;;;;;5096255;28;20221;-94
2022/03/05 08:53:20;;;;;;;22.95;14.52;;;7.90;98.10;;;;;;5101847;28;20172;-92
2022/03/05 08:55:46;;;;;;;29.67;15.70;;;8.10;97.30;;;;;;5098611;28;20216;-93
2022/03/05 08:58:12;;;;;;;25.95;16.27;;;8.40;96.50;;;;;;5095761;28;20253;-94
2022/03/05 09:00:38;;;;;;;28.65;16.33;;;8.60;96.10;;;;;;5101065;28;20200;-94
2022/03/05 09:03:05;;;;;;;23.88;15.57;;;8.90;95.80;;;;;;5099048;28;20181;-91
2022/03/05 09:05:31;;;;;;;24.85;17.83;;;9.00;94.60;;;;;;5109299;28;20229;-94
2022/03/05 09:07:57;;;;;;;27.67;16.30;;;9.10;94.80;;;;;;5095724;28;20185;-95
2022/03/05 09:10:23;;;;;;;25.20;15.27;;;9.20;94.50;;;;;;5100119;28;20597;-93
2022/03/05 09:12:49;;;;;;;20.88;14.60;;;9.30;94.10;;;;;;5095207;28;20388;-93
2022/03/05 09:15:16;;;;;;;22.02;15.57;;;9.50;93.60;;;;;;5095525;28;20200;-93
2022/03/05 09:17:42;;;;;;;18.92;13.50;;;9.70;93.20;;;;;;5105768;28;20248;-95
2022/03/05 09:20:09;;;;;;;23.58;15.02;;;9.80;92.70;;;;;;5097527;28;20201;-94
2022/03/05 09:22:36;;;;;;;25.88;14.23;;;9.90;92.40;;;;;;5097086;28;20684;-95
2022/03/05 09:25:06;;;;;;;21.05;13.80;;;10.00;91.50;;;;;;5094558;28;20196;-94
2022/03/05 09:27:33;;;;;;;21.67;14.43;;;10.00;91.20;;;;;;5095142;28;20176;-93
2022/03/05 09:29:59;;;;;;;23.00;16.73;;;10.10;91.10;;;;;;5101619;28;20568;-94
2022/03/05 09:32:26;;;;;;;22.02;14.23;;;10.20;91.40;;;;;;5097812;28;20179;-94
2022/03/05 09:34:52;;;;;;;19.48;14.52;;;10.10;90.90;;;;;;5092295;28;20204;-94
2022/03/05 09:37:18;;;;;;;24.15;15.80;;;10.00;91.00;;;;;;5094541;28;20665;-93
2022/03/05 09:39:44;;;;;;;20.90;14.70;;;9.90;91.40;;;;;;5095241;28;20204;-93
2022/03/05 09:42:10;;;;;;;22.40;15.23;;;9.90;91.00;;;;;;5104231;28;20216;-92
2022/03/05 09:44:38;;;;;;;23.30;13.40;;;9.80;90.90;;;;;;5091490;28;20491;-93
2022/03/05 09:47:06;;;;;;;19.63;14.55;;;9.70;90.80;;;;;;5014565;28;20444;-94
2022/03/05 09:49:38;;;;;;;19.13;13.07;;;9.70;91.20;;;;;;5013856;28;20230;-94
2022/03/05 09:52:05;;;;;;;20.38;12.85;;;9.60;90.50;;;;;;5017570;28;20240;-94
2022/03/05 09:54:34;;;;;;;19.27;11.77;;;9.70;90.70;;;;;;5080006;28;20304;-94
2022/03/05 09:57:00;;;;;;;18.13;12.75;;;9.80;90.50;;;;;;5011655;28;20178;-94
2022/03/05 09:59:26;;;;;;;19.33;12.68;;;9.90;90.60;;;;;;5011072;28;20676;-93
2022/03/05 10:01:53;;;;;;;20.63;13.65;;;9.90;90.40;;;;;;5084843;28;20223;-92
2022/03/05 10:04:21;;;;;;;22.08;13.15;;;10.00;90.20;;;;;;5015624;28;20191;-93
2022/03/05 10:07:07;;;;;;;20.45;13.13;;;10.20;90.20;;;;;;5019449;28;20660;-94
2022/03/05 10:09:33;;;;;;;21.50;11.40;;;10.40;89.60;;;;;;5011219;28;20654;-93
2022/03/05 10:11:59;;;;;;;17.20;11.50;;;10.70;88.80;;;;;;5011299;28;20175;-92
2022/03/05 10:14:26;;;;;;;20.80;13.02;;;11.00;88.30;;;;;;5011166;28;20246;-93
2022/03/05 10:17:00;;;;;;;18.27;12.38;;;11.30;87.80;;;;;;5084550;28;20171;-93
2022/03/05 10:19:27;;;;;;;18.80;13.23;;;11.60;87.60;;;;;;5023651;28;20210;-94
2022/03/05 10:22:05;;;;;;;21.95;14.43;;;11.80;87.20;;;;;;5063039;28;20202;-92
2022/03/05 10:24:39;;;;;;;19.98;14.38;;;12.00;85.60;;;;;;5010952;28;20691;-95
2022/03/05 10:27:08;;;;;;;21.63;13.10;;;12.00;83.90;;;;;;5010105;28;20258;-94
2022/03/05 10:29:37;;;;;;;21.10;13.20;;;11.90;83.30;;;;;;5010890;28;20296;-93
2022/03/05 10:32:08;;;;;;;21.08;12.23;;;11.80;84.30;;;;;;5097510;28;20182;-93
2022/03/05 10:34:50;;;;;;;20.33;14.38;;;11.60;84.20;;;;;;5009150;28;20203;-94
2022/03/05 10:37:20;;;;;;;19.85;12.57;;;11.60;84.90;;;;;;5079143;28;20182;-94
2022/03/05 10:39:47;;;;;;;23.13;13.05;;;11.50;84.20;;;;;;5079425;28;20215;-94
2022/03/05 10:42:21;;;;;;;22.80;13.75;;;11.50;84.10;;;;;;5062876;28;20187;-94
2022/03/05 10:45:00;;;;;;;19.77;13.88;;;11.30;84.10;;;;;;5004318;28;20207;-95
2022/03/05 10:47:35;;;;;;;21.48;15.40;;;11.30;85.30;;;;;;5012825;28;20193;-94
2022/03/05 10:50:19;;;;;;;20.60;13.38;;;11.30;84.00;;;;;;5063080;28;20231;-94
2022/03/05 10:52:47;;;;;;;23.15;14.98;;;11.30;83.10;;;;;;5010529;28;20179;-94
2022/03/05 10:55:24;;;;;;;18.70;14.60;;;11.30;84.10;;;;;;5010647;28;20215;-94
2022/03/05 10:58:13;;;;;;;23.58;15.20;;;11.30;84.50;;;;;;5088946;28;20240;-95
2022/03/05 11:00:41;;;;;;;21.60;15.38;;;11.30;84.70;;;;;;5013481;28;20310;-94
2022/03/05 11:03:07;;;;;;;21.13;14.15;;;11.30;83.40;;;;;;5010067;28;20187;-94
2022/03/05 11:05:34;;;;;;;25.63;16.92;;;11.20;83.10;;;;;;5010334;28;20209;-94
2022/03/05 11:08:04;;;;;;;25.15;16.20;;;11.10;83.50;;;;;;5009573;28;20260;-94
2022/03/05 11:10:30;;;;;;;25.15;16.63;;;11.00;83.50;;;;;;5016505;28;20784;-95
2022/03/05 11:12:59;;;;;;;24.20;17.48;;;10.80;84.10;;;;;;5013923;28;20228;-92
2022/03/05 11:15:26;;;;;;;26.10;18.05;;;10.70;84.20;;;;;;5019331;28;20250;-94
2022/03/05 11:17:53;;;;;;;24.15;17.02;;;10.60;84.50;;;;;;5010437;28;20190;-94
2022/03/05 11:20:19;;;;;;;25.48;16.60;;;10.60;85.50;;;;;;5010622;28;20207;-94
2022/03/05 11:22:49;;;;;;;30.50;16.88;;;10.60;84.10;;;;;;5018835;28;20179;-94
2022/03/05 11:25:20;;;;;;;23.58;16.60;;;10.50;83.80;;;;;;5011746;28;20660;-94
2022/03/05 11:27:58;;;;;;;26.02;16.27;;;10.50;84.30;;;;;;5082221;28;20175;-94
2022/03/05 11:30:25;;;;;;;25.75;15.98;;;10.40;83.80;;;;;;5010047;28;20272;-95
2022/03/05 11:32:51;;;;;;;21.65;14.10;;;10.30;83.50;;;;;;5010092;28;20183;-95
2022/03/05 11:35:21;;;;;;;21.60;13.15;;;10.30;84.20;;;;;;5019504;28;20221;-95
2022/03/05 11:37:47;;;;;;;15.50;9.90;;;10.30;83.40;;;;;;5081590;28;20186;-94
2022/03/05 11:40:46;;;;;;;14.63;9.48;;;10.40;83.30;;;;;;5082398;28;20203;-94
2022/03/05 11:43:18;;;;;;;26.73;16.92;;;10.40;83.90;;;;;;5035330;28;20191;-94
2022/03/05 11:45:58;;;;;;;23.45;14.60;;;10.40;82.00;;;;;;5078364;28;20292;-94
2022/03/05 11:48:28;;;;;;;28.80;16.23;;;10.50;82.40;;;;;;5086003;28;20262;-94
2022/03/05 11:50:57;;;;;;;24.40;16.55;;;10.50;82.60;;;;;;5021728;28;20226;-95
2022/03/05 11:53:24;;;;;;;23.80;16.10;;;10.50;81.80;;;;;;5011652;28;20179;-95
2022/03/05 11:55:50;;;;;;;24.35;13.55;;;10.50;82.10;;;;;;5013524;28;20234;-96
2022/03/05 11:58:25;;;;;;;23.98;16.65;;;10.50;82.40;;;;;;5009555;28;20183;-95
2022/03/05 12:00:51;;;;;;;24.25;16.67;;;10.40;82.40;;;;;;5015615;28;20206;-95
2022/03/05 12:03:42;;;;;;;23.25;16.30;;;10.40;82.20;;;;;;5010419;28;20683;-95
2022/03/05 12:06:11;;;;;;;23.73;15.10;;;10.40;81.60;;;;;;5013606;28;20203;-91
2022/03/05 12:08:41;;;;;;;21.48;15.25;;;10.30;81.90;;;;;;5014021;28;20180;-93
2022/03/05 12:11:11;;;;;;;23.15;15.30;;;10.30;82.80;;;;;;5014886;28;20223;-92
2022/03/05 12:13:45;;;;;;;28.75;15.85;;;10.30;82.10;;;;;;5013079;28;20180;-95
2022/03/05 12:16:23;;;;;;;24.67;16.58;;;10.30;81.80;;;;;;5009818;28;20272;-95
2022/03/05 12:18:50;;;;;;;28.83;20.23;;;10.30;81.60;;;;;;5013371;28;20163;-94
2022/03/05 12:21:26;;;;;;;26.13;17.98;;;10.20;82.30;;;;;;5010036;28;20199;-96
2022/03/05 12:24:09;;;;;;;27.70;17.33;;;10.20;81.70;;;;;;5085446;28;20183;-93
2022/03/05 12:26:51;;;;;;;26.15;15.85;;;10.10;81.60;;;;;;5012589;28;20191;-95
2022/03/05 12:29:18;;;;;;;24.30;15.35;;;10.10;82.00;;;;;;5010528;28;20231;-95
2022/03/05 12:31:45;;;;;;;23.00;15.43;;;10.00;81.50;;;;;;5013248;28;20179;-92
2022/03/05 12:34:12;;;;;;;22.60;15.00;;;9.90;81.70;;;;;;5009932;28;20269;-95
2022/03/05 12:36:42;;;;;;;24.63;14.20;;;9.90;81.90;;;;;;5087842;28;20179;-95
2022/03/05 12:39:09;;;;;;;22.33;14.57;;;9.80;82.50;;;;;;5077576;28;20175;-94
2022/03/05 12:41:36;;;;;;;25.08;16.80;;;9.80;82.80;;;;;;5021390;28;20179;-95